Listerhav — ZDKC7 — position and weather

sailwx.info

Track history (hours):
 
Tides and Currents Weather Stations Pressure Air Temp Water Temp Dewpoint Dewpoint Depression Visibility Wind Speed Wind Dir Waves Ship Positions

Listerhav

Last reported at 2014-Sep-17 00:24 UTC. Time now 2014-Sep-18 11:42 UTC.
Position N 56°13' E 018°32'.

Length 88 m; draft 4 m.

Type: Cargo ship. MMSI: 236591000.

Date/timePositionNaut miles runAvg speedWind from/ knotsBaromVisibWave heightAir tempDewpointWater temp
2014-Sep-17 00:24N 56°13' E 018°32'10 9.4
2014-Sep-16 23:22N 56°11' E 018°15'8 9.3
2014-Sep-16 22:30N 56°09' E 018°01'29 9.3
2014-Sep-16 19:22N 56°02' E 017°10'27 9.2
2014-Sep-16 16:29N 55°58' E 016°23'8 8.9
2014-Sep-16 15:32N 55°59' E 016°08'9 8.7
2014-Sep-16 14:33N 55°59' E 015°53'9 8.7
2014-Sep-16 13:33N 56°01' E 015°38'9 8.8
2014-Sep-16 12:33N 56°03' E 015°22'9 8.9
2014-Sep-16 11:33N 56°05' E 015°07'11 1.3
2014-Sep-16 03:18N 56°10' E 014°49'0 0.0
2014-Sep-16 02:30N 56°10' E 014°49'0 0.0
2014-Sep-16 01:12N 56°10' E 014°49'0 0.0
2014-Sep-16 00:30N 56°10' E 014°49'0 0.0
2014-Sep-15 22:30N 56°10' E 014°49'0 0.0
2014-Sep-15 19:29N 56°10' E 014°49'0 0.0
2014-Sep-15 09:29N 56°10' E 014°49'4 0.2
2014-Sep-14 11:16N 56°06' E 014°55'15 8.7
2014-Sep-14 09:33N 56°03' E 015°21'9 8.8
2014-Sep-14 08:33N 56°01' E 015°36'9 8.8
2014-Sep-14 07:31N 55°60' E 015°52'9 8.9
2014-Sep-14 06:33N 56°02' E 016°07'10 9.4
2014-Sep-14 05:30N 56°04' E 016°24'78 8.4
2014-Sep-13 20:16N 56°49' E 018°19'9 8.6
2014-Sep-13 19:10N 56°53' E 018°34'5 8.5
2014-Sep-13 18:33N 56°56' E 018°42'  
2014-Sep-10 21:32N 56°51' E 018°38'9 9.3
2014-Sep-10 20:32N 56°45' E 018°24'83 9.2
2014-Sep-10 11:33N 56°00' E 016°20'9 8.9
2014-Sep-10 10:33N 55°60' E 016°04'9 9.0
2014-Sep-10 09:33N 55°59' E 015°47'9 9.4
2014-Sep-10 08:33N 56°01' E 015°31'10 9.6
2014-Sep-10 07:33N 56°04' E 015°14'  
2014-Sep-07 23:23N 56°07' E 014°51'0 0.0
2014-Sep-07 20:29N 56°07' E 014°51'0 0.0
2014-Sep-07 18:17N 56°07' E 014°51'0 0.0
2014-Sep-07 17:29N 56°07' E 014°51'0 0.0
2014-Sep-07 16:31N 56°07' E 014°51'0 0.0
2014-Sep-07 15:25N 56°07' E 014°51'0 0.0
2014-Sep-07 14:16N 56°07' E 014°51'0 0.0
2014-Sep-07 13:28N 56°07' E 014°51'0 0.0
2014-Sep-07 12:10N 56°07' E 014°51'0 0.0
2014-Sep-07 11:28N 56°07' E 014°51'0 0.0
2014-Sep-07 10:31N 56°07' E 014°51'1 0.7
2014-Sep-07 08:32N 56°08' E 014°53'  
Track history (hours):
 
Tides and Currents Weather Stations Pressure Air Temp Water Temp Dewpoint Dewpoint Depression Visibility Wind Speed Wind Dir Waves Ship Positions

Listerhav

Last reported at 2014-Sep-17 00:24 UTC. Time now 2014-Sep-18 11:42 UTC.
Position N 56°13' E 018°32'.

Length 88 m; draft 4 m.

Type: Cargo ship. MMSI: 236591000.

Date/timePositionNaut miles runAvg speedWind from/ knotsBaromVisibWave heightAir tempDewpointWater temp
2014-Sep-17 00:24N 56°13' E 018°32'10 9.4
2014-Sep-16 23:22N 56°11' E 018°15'8 9.3
2014-Sep-16 22:30N 56°09' E 018°01'29 9.3
2014-Sep-16 19:22N 56°02' E 017°10'27 9.2
2014-Sep-16 16:29N 55°58' E 016°23'8 8.9
2014-Sep-16 15:32N 55°59' E 016°08'9 8.7
2014-Sep-16 14:33N 55°59' E 015°53'9 8.7
2014-Sep-16 13:33N 56°01' E 015°38'9 8.8
2014-Sep-16 12:33N 56°03' E 015°22'9 8.9
2014-Sep-16 11:33N 56°05' E 015°07'11 1.3
2014-Sep-16 03:18N 56°10' E 014°49'0 0.0
2014-Sep-16 02:30N 56°10' E 014°49'0 0.0
2014-Sep-16 01:12N 56°10' E 014°49'0 0.0
2014-Sep-16 00:30N 56°10' E 014°49'0 0.0
2014-Sep-15 22:30N 56°10' E 014°49'0 0.0
2014-Sep-15 19:29N 56°10' E 014°49'0 0.0
2014-Sep-15 09:29N 56°10' E 014°49'4 0.2
2014-Sep-14 11:16N 56°06' E 014°55'15 8.7
2014-Sep-14 09:33N 56°03' E 015°21'9 8.8
2014-Sep-14 08:33N 56°01' E 015°36'9 8.8
2014-Sep-14 07:31N 55°60' E 015°52'9 8.9
2014-Sep-14 06:33N 56°02' E 016°07'10 9.4
2014-Sep-14 05:30N 56°04' E 016°24'78 8.4
2014-Sep-13 20:16N 56°49' E 018°19'9 8.6
2014-Sep-13 19:10N 56°53' E 018°34'5 8.5
2014-Sep-13 18:33N 56°56' E 018°42'  
2014-Sep-10 21:32N 56°51' E 018°38'9 9.3
2014-Sep-10 20:32N 56°45' E 018°24'83 9.2
2014-Sep-10 11:33N 56°00' E 016°20'9 8.9
2014-Sep-10 10:33N 55°60' E 016°04'9 9.0
2014-Sep-10 09:33N 55°59' E 015°47'9 9.4
2014-Sep-10 08:33N 56°01' E 015°31'10 9.6
2014-Sep-10 07:33N 56°04' E 015°14'  
2014-Sep-07 23:23N 56°07' E 014°51'0 0.0
2014-Sep-07 20:29N 56°07' E 014°51'0 0.0
2014-Sep-07 18:17N 56°07' E 014°51'0 0.0
2014-Sep-07 17:29N 56°07' E 014°51'0 0.0
2014-Sep-07 16:31N 56°07' E 014°51'0 0.0
2014-Sep-07 15:25N 56°07' E 014°51'0 0.0
2014-Sep-07 14:16N 56°07' E 014°51'0 0.0
2014-Sep-07 13:28N 56°07' E 014°51'0 0.0
2014-Sep-07 12:10N 56°07' E 014°51'0 0.0
2014-Sep-07 11:28N 56°07' E 014°51'0 0.0
2014-Sep-07 10:31N 56°07' E 014°51'1 0.7
2014-Sep-07 08:32N 56°08' E 014°53'  

Dump ship's entire track history